Time;durP1;ratioP1;P1;durP2;ratioP2;P2;SDS_P1;SDS_P2;PMS_P1;PMS_P2;Temp;Humidity;BMP_temperature;BMP_pressure;BME280_temperature;BME280_humidity;BME280_pressure;Samples;Min_cycle;Max_cycle;Signal;HPM_P1;HPM_P2
2023/08/26 00:02:14;;;;;;;0.65;0.40;;;;;;;16.49;76.67;101011.97;5024523;28;20409;-78
2023/08/26 00:04:41;;;;;;;1.77;0.68;;;;;;;16.49;76.60;101005.84;5023073;28;20046;-78
2023/08/26 00:07:09;;;;;;;1.63;0.40;;;;;;;16.49;76.79;101008.47;5016708;28;20063;-78
2023/08/26 00:09:36;;;;;;;3.40;0.50;;;;;;;16.42;76.48;100995.53;5025456;28;20096;-78
2023/08/26 00:12:03;;;;;;;0.85;0.45;;;;;;;16.49;76.54;101005.84;5022285;28;20072;-78
2023/08/26 00:14:31;;;;;;;2.92;0.82;;;;;;;16.26;76.56;100964.56;5018653;28;20046;-79
2023/08/26 00:16:58;;;;;;;1.25;0.55;;;;;;;16.49;76.83;101000.56;5025399;28;20081;-78
2023/08/26 00:19:25;;;;;;;0.80;0.43;;;;;;;16.48;76.61;101004.09;5023594;28;20557;-77
2023/08/26 00:21:52;;;;;;;1.67;0.40;;;;;;;16.47;76.91;101003.25;5024277;28;20049;-78
2023/08/26 00:24:21;;;;;;;2.47;0.40;;;;;;;16.46;76.90;100998.06;5022465;28;20419;-77
2023/08/26 00:26:47;;;;;;;2.80;0.90;;;;;;;16.47;76.63;100997.13;5022203;28;20058;-77
2023/08/26 00:29:15;;;;;;;1.10;0.50;;;;;;;16.47;76.51;100994.50;5022119;28;20049;-78
2023/08/26 00:31:42;;;;;;;4.90;0.45;;;;;;;16.45;76.37;100997.22;5027025;28;20054;-78
2023/08/26 00:34:09;;;;;;;3.38;0.43;;;;;;;16.45;76.47;100993.69;5019164;28;20049;-77
2023/08/26 00:36:35;;;;;;;1.88;0.60;;;;;;;16.44;76.71;100995.47;5016371;28;20515;-77
2023/08/26 00:39:02;;;;;;;2.83;0.40;;;;;;;16.44;76.65;100987.56;5018738;28;20111;-78
2023/08/26 00:41:31;;;;;;;6.10;0.50;;;;;;;16.45;76.46;100993.69;5026364;28;20042;-78
2023/08/26 00:43:58;;;;;;;3.70;1.77;;;;;;;16.30;76.70;100969.63;5023759;28;20053;-77
2023/08/26 00:46:25;;;;;;;0.70;0.50;;;;;;;16.40;76.81;100992.09;5024184;28;20064;-78
2023/08/26 00:48:52;;;;;;;2.47;0.63;;;;;;;16.42;76.66;100985.00;5025369;28;20128;-78
2023/08/26 00:51:20;;;;;;;2.15;0.52;;;;;;;16.46;77.01;100987.50;5029700;28;20042;-77
2023/08/26 00:53:48;;;;;;;5.60;0.70;;;;;;;16.45;76.99;100986.66;5027502;28;20109;-77
2023/08/26 00:56:15;;;;;;;1.02;0.40;;;;;;;16.42;76.85;100979.72;5014265;28;20129;-78
2023/08/26 00:58:44;;;;;;;0.52;0.40;;;;;;;16.45;76.88;100986.66;5022741;28;20067;-77
2023/08/26 01:01:11;;;;;;;3.13;0.50;;;;;;;16.47;77.03;100983.94;5024741;28;20046;-78
2023/08/26 01:03:39;;;;;;;2.03;0.50;;;;;;;16.46;76.90;100979.59;5016647;28;20089;-78
2023/08/26 01:06:06;;;;;;;1.67;0.63;;;;;;;16.46;76.74;100982.25;5018261;28;20052;-78
2023/08/26 01:08:34;;;;;;;4.30;0.60;;;;;;;16.41;76.68;100974.50;5024897;28;20045;-78
2023/08/26 01:11:08;;;;;;;1.70;0.50;;;;;;;16.40;76.92;100971.00;5019541;28;20057;-83
2023/08/26 01:13:47;;;;;;;0.95;0.50;;;;;;;16.47;76.90;100986.59;5022541;28;20056;-82
2023/08/26 01:16:16;;;;;;;4.57;0.68;;;;;;;16.46;77.40;100987.50;5023611;28;20046;-82
2023/08/26 01:18:43;;;;;;;4.10;0.70;;;;;;;16.46;76.88;100992.78;5021922;28;21914;-82
2023/08/26 01:21:13;;;;;;;1.67;0.60;;;;;;;16.36;77.10;100969.44;5030076;28;20380;-83
2023/08/26 01:23:43;;;;;;;1.77;0.50;;;;;;;16.48;76.94;100999.72;5023871;28;20049;-81
2023/08/26 01:26:10;;;;;;;4.05;0.60;;;;;;;16.42;77.23;100977.09;5025911;28;20056;-83
2023/08/26 01:28:38;;;;;;;1.55;0.60;;;;;;;16.49;77.27;100990.88;5028980;28;20037;-81
2023/08/26 01:31:10;;;;;;;1.35;0.50;;;;;;;16.51;77.27;100988.19;5023306;28;20042;-81
2023/08/26 01:33:43;;;;;;;0.80;0.70;;;;;;;16.46;77.21;100980.47;5027507;28;20042;-81
2023/08/26 01:36:14;;;;;;;1.65;0.40;;;;;;;16.51;77.32;100985.56;5022845;28;20048;-81
2023/08/26 01:38:43;;;;;;;1.58;0.50;;;;;;;16.41;77.32;100972.72;5027899;28;20037;-82
2023/08/26 01:41:12;;;;;;;1.65;0.60;;;;;;;16.41;77.56;100972.72;5026035;28;20057;-82
2023/08/26 01:43:40;;;;;;;1.60;1.08;;;;;;;16.50;77.61;100982.03;5022964;28;20046;-81
2023/08/26 01:46:07;;;;;;;6.70;1.08;;;;;;;16.35;77.65;100959.78;5022384;28;20063;-81
2023/08/26 01:48:34;;;;;;;0.95;0.40;;;;;;;16.54;77.57;100991.56;5020074;28;20460;-81
2023/08/26 01:51:01;;;;;;;1.38;0.70;;;;;;;16.48;77.65;100977.75;5029638;28;20049;-83
2023/08/26 01:53:28;;;;;;;1.00;0.52;;;;;;;16.54;77.74;100988.06;5031423;28;20053;-83
2023/08/26 01:55:56;;;;;;;2.10;0.60;;;;;;;16.55;77.53;100989.78;5024765;28;20042;-82
2023/08/26 01:58:23;;;;;;;3.25;0.70;;;;;;;16.46;77.90;100969.91;5027986;28;20045;-82
2023/08/26 02:00:50;;;;;;;1.60;0.50;;;;;;;16.46;78.02;100975.19;5029237;28;20107;-82
2023/08/26 02:03:17;;;;;;;2.70;0.60;;;;;;;16.54;78.00;100988.94;5033968;28;20480;-81
2023/08/26 02:05:44;;;;;;;2.55;0.60;;;;;;;16.54;77.93;100988.06;5023921;28;20054;-82
2023/08/26 02:08:11;;;;;;;1.17;0.50;;;;;;;16.56;78.07;100991.47;5021594;28;20499;-83
2023/08/26 02:10:39;;;;;;;2.58;0.70;;;;;;;16.46;78.21;100977.81;5024661;28;20048;-82
2023/08/26 02:13:08;;;;;;;4.15;0.68;;;;;;;16.56;78.13;100997.66;5014049;28;20459;-74
2023/08/26 02:15:35;;;;;;;2.67;0.60;;;;;;;16.57;78.04;100999.34;5016980;28;20049;-74
2023/08/26 02:18:02;;;;;;;2.70;0.60;;;;;;;16.57;78.08;100999.34;5017230;28;20045;-74
2023/08/26 02:20:29;;;;;;;4.88;1.00;;;;;;;16.53;78.20;100994.25;5015744;28;20054;-74
2023/08/26 02:22:56;;;;;;;3.78;0.57;;;;;;;16.59;78.21;100999.28;5012210;28;20045;-76
2023/08/26 02:25:23;;;;;;;1.42;0.60;;;;;;;16.58;78.08;100995.78;5013934;28;20057;-76
2023/08/26 02:27:50;;;;;;;4.28;0.93;;;;;;;16.59;78.34;100989.59;5009695;28;20559;-76
2023/08/26 02:30:18;;;;;;;1.40;0.68;;;;;;;16.54;78.41;100974.88;5010751;28;20053;-76
2023/08/26 02:32:45;;;;;;;1.33;0.50;;;;;;;16.59;78.53;100975.53;5013173;28;20054;-76
2023/08/26 02:35:12;;;;;;;2.28;0.60;;;;;;;16.60;78.29;100972.00;5018334;28;20046;-76
2023/08/26 02:37:39;;;;;;;3.17;0.60;;;;;;;16.60;78.11;100969.38;5014682;28;20492;-77
2023/08/26 02:40:07;;;;;;;6.88;0.88;;;;;;;16.61;78.48;100963.16;5014825;28;20045;-76
2023/08/26 02:42:34;;;;;;;3.05;1.05;;;;;;;16.61;78.13;100964.00;5015141;28;20053;-75
2023/08/26 02:45:01;;;;;;;3.05;0.75;;;;;;;16.62;78.45;100965.75;5015501;28;20045;-77
2023/08/26 02:47:29;;;;;;;1.92;0.90;;;;;;;16.62;78.45;100967.50;5010803;28;20054;-76
2023/08/26 02:49:56;;;;;;;2.20;0.95;;;;;;;16.62;78.25;100968.38;5014615;28;20053;-75
2023/08/26 02:52:23;;;;;;;2.25;0.90;;;;;;;16.63;78.45;100963.97;5015624;28;20819;-75
2023/08/26 02:54:50;;;;;;;3.17;0.90;;;;;;;16.53;78.50;100944.13;5011717;28;20065;-75
2023/08/26 02:57:17;;;;;;;1.75;0.77;;;;;;;16.65;78.55;100956.84;5018105;28;20517;-77
2023/08/26 02:59:45;;;;;;;3.05;0.80;;;;;;;16.65;78.51;100962.13;5018378;28;20931;-76
2023/08/26 03:02:12;;;;;;;1.73;0.75;;;;;;;16.67;78.44;100960.25;5016544;28;20045;-76
2023/08/26 03:04:43;;;;;;;3.88;0.77;;;;;;;16.66;78.61;100955.91;5014047;28;20072;-76
2023/08/26 03:07:10;;;;;;;2.42;0.60;;;;;;;16.58;78.50;100935.13;5019402;28;20056;-76
2023/08/26 03:09:37;;;;;;;1.95;0.73;;;;;;;16.68;78.58;100948.81;5017413;28;20056;-76
2023/08/26 03:12:04;;;;;;;1.25;0.75;;;;;;;16.68;78.57;100945.28;4999433;28;20147;-76
2023/08/26 03:14:31;;;;;;;2.28;0.93;;;;;;;16.68;78.58;100951.44;5012103;28;20053;-76
2023/08/26 03:16:58;;;;;;;1.13;0.77;;;;;;;16.69;78.39;100941.75;5016629;28;20518;-76
2023/08/26 03:19:25;;;;;;;4.15;0.70;;;;;;;16.61;78.54;100932.34;5014965;28;20715;-76
2023/08/26 03:21:53;;;;;;;3.97;0.80;;;;;;;16.69;78.51;100936.47;5023024;28;20416;-77
2023/08/26 03:24:20;;;;;;;1.67;0.70;;;;;;;16.70;78.48;100946.94;5023443;28;20586;-77
2023/08/26 03:26:47;;;;;;;1.10;1.00;;;;;;;16.64;78.77;100941.94;5020817;28;20053;-77
2023/08/26 03:29:14;;;;;;;2.13;0.65;;;;;;;16.70;78.55;100948.72;5028922;28;20045;-78
2023/08/26 03:31:43;;;;;;;2.67;0.52;;;;;;;16.66;78.63;100944.50;5021867;28;20057;-74
2023/08/26 03:34:10;;;;;;;3.88;0.63;;;;;;;16.73;78.51;100957.38;5013169;28;20476;-74
2023/08/26 03:36:36;;;;;;;0.70;0.57;;;;;;;16.72;78.80;100955.66;5019135;28;20052;-77
2023/08/26 03:39:05;;;;;;;4.93;1.00;;;;;;;16.73;78.86;100952.09;5019020;28;20608;-74
2023/08/26 03:41:32;;;;;;;1.23;0.60;;;;;;;16.57;78.97;100916.75;5017409;28;20061;-74
2023/08/26 03:43:59;;;;;;;2.67;0.60;;;;;;;16.73;78.76;100944.19;5015894;28;20050;-75
2023/08/26 03:46:27;;;;;;;4.97;0.82;;;;;;;16.75;78.75;100949.41;5016855;28;20050;-74
2023/08/26 03:48:53;;;;;;;2.60;0.85;;;;;;;16.76;78.98;100952.03;5021282;28;20050;-74
2023/08/26 03:51:20;;;;;;;1.88;0.90;;;;;;;16.76;78.83;100949.38;5018806;28;20198;-74
2023/08/26 03:53:47;;;;;;;5.47;0.85;;;;;;;16.77;78.86;100937.91;5020801;28;20065;-74
2023/08/26 03:56:16;;;;;;;1.92;0.70;;;;;;;16.78;79.02;100944.88;5018499;28;20045;-73
2023/08/26 03:58:43;;;;;;;2.13;1.10;;;;;;;16.78;79.09;100944.03;5015976;28;20038;-75
2023/08/26 04:01:10;;;;;;;2.30;0.65;;;;;;;16.79;79.09;100946.63;5019145;28;20053;-74
2023/08/26 04:03:37;;;;;;;3.75;1.40;;;;;;;16.79;79.08;100938.72;5014777;28;20053;-73
2023/08/26 04:06:05;;;;;;;2.35;1.23;;;;;;;16.79;79.17;100941.34;5014830;28;20056;-74
2023/08/26 04:08:34;;;;;;;3.42;0.90;;;;;;;16.78;79.18;100931.69;5017548;28;20045;-74
2023/08/26 04:11:02;;;;;;;3.65;1.17;;;;;;;16.79;79.29;100933.44;5015053;28;20046;-74
2023/08/26 04:13:30;;;;;;;4.15;0.88;;;;;;;16.82;79.29;100935.94;5017863;28;20050;-75
2023/08/26 04:15:58;;;;;;;2.10;1.00;;;;;;;16.76;79.56;100928.28;5019654;28;20057;-74
2023/08/26 04:18:25;;;;;;;1.65;1.02;;;;;;;16.84;79.49;100942.00;5020230;28;20053;-74
2023/08/26 04:20:53;;;;;;;2.33;1.13;;;;;;;16.85;79.44;100949.00;5021743;28;20045;-74
2023/08/26 04:23:20;;;;;;;3.05;1.17;;;;;;;16.76;79.55;100928.28;5014539;28;20058;-74
2023/08/26 04:25:47;;;;;;;2.10;1.42;;;;;;;16.89;79.53;100956.78;5018286;28;20053;-75
2023/08/26 04:28:15;;;;;;;2.83;0.95;;;;;;;16.90;79.54;100950.56;5019667;28;20061;-74
2023/08/26 04:30:45;;;;;;;4.55;1.20;;;;;;;16.78;79.81;100923.78;5019625;28;20088;-80
2023/08/26 04:33:12;;;;;;;3.45;1.50;;;;;;;16.93;79.60;100945.16;5023210;28;20037;-77
2023/08/26 04:35:39;;;;;;;2.00;1.30;;;;;;;16.93;79.88;100939.88;5024370;28;20046;-77
2023/08/26 04:38:06;;;;;;;1.55;1.45;;;;;;;16.91;80.23;100939.13;5023788;28;20046;-77
2023/08/26 04:40:33;;;;;;;6.03;1.00;;;;;;;16.95;80.03;100952.09;5021813;28;20042;-76
2023/08/26 04:43:01;;;;;;;2.40;0.93;;;;;;;16.97;79.89;100952.91;5031517;28;20049;-79
2023/08/26 04:45:28;;;;;;;3.15;1.13;;;;;;;16.99;80.02;100955.47;5025119;28;20073;-78
2023/08/26 04:47:57;;;;;;;7.15;1.40;;;;;;;17.01;80.26;100953.63;5026493;28;20062;-78
2023/08/26 04:50:24;;;;;;;3.17;1.70;;;;;;;16.98;80.08;100944.03;5021766;28;20050;-78
2023/08/26 04:52:51;;;;;;;4.70;1.90;;;;;;;17.03;80.27;100949.16;5025887;28;20456;-78
2023/08/26 04:55:18;;;;;;;4.93;1.67;;;;;;;17.05;79.96;100950.81;5021544;28;20042;-77
2023/08/26 04:57:45;;;;;;;5.13;1.20;;;;;;;17.01;80.01;100941.28;5029659;28;20048;-78
2023/08/26 05:00:16;;;;;;;1.55;1.20;;;;;;;17.08;80.12;100952.44;5026224;28;20568;-78
2023/08/26 05:02:43;;;;;;;2.47;1.88;;;;;;;17.09;80.23;100965.56;5019899;28;20107;-78
2023/08/26 05:05:11;;;;;;;2.47;1.20;;;;;;;17.03;80.27;100954.41;5027958;28;20048;-78
2023/08/26 05:07:38;;;;;;;1.33;1.23;;;;;;;17.13;80.36;100958.38;5018136;28;20403;-78
2023/08/26 05:10:07;;;;;;;2.80;1.35;;;;;;;17.14;80.24;100965.38;5016821;28;20405;-77
2023/08/26 05:12:34;;;;;;;0.98;0.80;;;;;;;17.16;80.35;100966.19;5020838;28;20385;-77
2023/08/26 05:15:01;;;;;;;3.92;1.65;;;;;;;17.18;80.36;100958.19;5019910;28;20053;-78
2023/08/26 05:17:28;;;;;;;3.00;1.95;;;;;;;17.20;80.38;100954.56;5020205;28;20056;-77
2023/08/26 05:19:54;;;;;;;4.85;1.02;;;;;;;17.21;80.32;100958.91;5026591;28;20503;-78
2023/08/26 05:22:23;;;;;;;3.17;1.50;;;;;;;17.23;80.60;100957.06;5027993;28;20064;-77
2023/08/26 05:24:50;;;;;;;4.50;1.30;;;;;;;17.24;80.29;100968.47;5024273;28;20488;-78
2023/08/26 05:27:17;;;;;;;4.60;1.20;;;;;;;17.24;80.28;100971.97;5020245;28;20412;-78
2023/08/26 05:29:45;;;;;;;6.05;1.50;;;;;;;17.23;80.59;100966.78;5017995;28;20515;-77
2023/08/26 05:32:12;;;;;;;2.83;1.17;;;;;;;17.28;80.68;100970.94;5021725;28;20057;-79
2023/08/26 05:34:38;;;;;;;3.10;1.17;;;;;;;17.29;80.66;100967.34;5023681;28;20050;-78
2023/08/26 05:37:06;;;;;;;4.50;1.52;;;;;;;17.30;80.44;100966.44;5025866;28;20140;-77
2023/08/26 05:39:34;;;;;;;2.75;1.48;;;;;;;17.08;80.53;100933.97;5030644;28;20416;-77
2023/08/26 05:42:01;;;;;;;4.57;1.55;;;;;;;17.19;80.54;100955.50;5019609;28;20037;-77
2023/08/26 05:44:28;;;;;;;5.38;1.45;;;;;;;17.35;80.61;100971.50;5024083;28;20042;-76
2023/08/26 05:46:55;;;;;;;5.60;1.50;;;;;;;17.37;80.57;100966.19;5021986;28;20076;-77
2023/08/26 05:49:22;;;;;;;4.53;1.27;;;;;;;17.36;80.71;100961.81;5022091;28;20052;-76
2023/08/26 05:51:49;;;;;;;2.22;1.40;;;;;;;17.41;80.85;100962.47;5023234;28;20045;-78
2023/08/26 05:54:16;;;;;;;2.67;1.30;;;;;;;17.39;80.64;100949.34;5021090;28;20052;-77
2023/08/26 05:56:44;;;;;;;2.75;1.25;;;;;;;17.24;80.26;100928.88;5024010;28;20042;-77
2023/08/26 05:59:11;;;;;;;2.10;1.15;;;;;;;17.27;80.29;100928.75;5025546;28;20045;-78
2023/08/26 06:01:38;;;;;;;1.33;0.82;;;;;;;17.48;80.14;100961.28;5016233;28;20045;-79
2023/08/26 06:04:06;;;;;;;3.92;0.90;;;;;;;17.48;80.00;100956.84;5027197;28;20049;-76
2023/08/26 06:06:33;;;;;;;2.67;1.23;;;;;;;17.50;79.97;100962.06;5012334;28;20045;-78
2023/08/26 06:09:00;;;;;;;2.90;1.13;;;;;;;17.51;80.01;100962.00;5027087;28;20060;-77
2023/08/26 06:11:27;;;;;;;1.55;0.90;;;;;;;17.54;80.03;100963.66;5021923;28;20052;-78
2023/08/26 06:13:55;;;;;;;5.88;1.42;;;;;;;17.56;79.80;100959.16;5018097;28;20058;-77
2023/08/26 06:16:22;;;;;;;2.60;1.25;;;;;;;17.58;79.91;100965.22;5014195;28;20048;-76
2023/08/26 06:18:49;;;;;;;3.75;1.08;;;;;;;17.48;79.86;100940.16;5025144;28;20045;-77
2023/08/26 06:21:16;;;;;;;8.70;1.13;;;;;;;17.62;80.08;100972.09;5022228;28;20124;-76
2023/08/26 06:23:43;;;;;;;1.60;1.50;;;;;;;17.61;79.97;100967.72;5021482;28;20080;-76
2023/08/26 06:26:10;;;;;;;1.85;1.17;;;;;;;17.67;79.82;100983.31;5030214;28;20506;-77
2023/08/26 06:28:37;;;;;;;1.15;0.95;;;;;;;17.69;79.97;100981.44;5018937;28;20049;-77
2023/08/26 06:31:05;;;;;;;3.58;1.00;;;;;;;17.72;79.58;100976.03;5024436;28;20382;-77
2023/08/26 06:33:32;;;;;;;5.63;0.70;;;;;;;17.73;79.40;100975.13;5017673;28;20055;-76
2023/08/26 06:35:59;;;;;;;4.00;1.45;;;;;;;17.75;79.40;100986.44;5013978;28;20054;-76
2023/08/26 06:38:26;;;;;;;3.22;0.70;;;;;;;17.76;79.23;100980.25;5018975;28;20515;-78
2023/08/26 06:40:56;;;;;;;3.83;0.77;;;;;;;17.78;78.99;100974.91;5021335;28;20041;-77
2023/08/26 06:43:24;;;;;;;3.08;0.95;;;;;;;17.72;79.14;100960.16;5019640;28;20408;-79
2023/08/26 06:45:51;;;;;;;2.45;0.82;;;;;;;17.81;79.24;100963.34;5026577;28;20051;-76
2023/08/26 06:48:19;;;;;;;2.83;0.90;;;;;;;17.86;79.50;100971.94;5023920;28;20725;-76
2023/08/26 06:50:50;;;;;;;3.78;0.70;;;;;;;17.90;79.21;100981.44;5033008;28;20048;-77
2023/08/26 06:53:20;;;;;;;5.88;0.70;;;;;;;17.93;79.40;100983.94;5031584;28;20037;-78
2023/08/26 06:55:49;;;;;;;2.20;0.75;;;;;;;17.96;79.32;100984.66;5026977;28;20448;-80
2023/08/26 06:58:16;;;;;;;5.28;0.88;;;;;;;18.00;78.97;100985.38;5025220;28;20045;-79
2023/08/26 07:00:43;;;;;;;2.85;0.90;;;;;;;18.04;78.90;100986.94;5027531;28;20041;-83
2023/08/26 07:03:11;;;;;;;2.10;0.82;;;;;;;18.07;78.75;100984.19;5020750;28;20053;-75
2023/08/26 07:05:39;;;;;;;2.00;0.73;;;;;;;18.10;78.91;100976.09;5020362;28;20121;-76
2023/08/26 07:08:06;;;;;;;1.08;0.50;;;;;;;18.14;78.65;100974.16;5010904;28;20049;-75
2023/08/26 07:10:33;;;;;;;2.97;0.70;;;;;;;18.16;78.51;100975.81;5018117;28;20042;-75
2023/08/26 07:13:00;;;;;;;2.05;0.68;;;;;;;18.17;78.04;100964.28;5015322;28;20057;-74
2023/08/26 07:15:27;;;;;;;3.45;0.85;;;;;;;18.24;78.20;100964.00;5021521;28;20046;-75
2023/08/26 07:17:55;;;;;;;1.05;0.60;;;;;;;18.27;78.10;100964.72;5019437;28;20421;-75
2023/08/26 07:20:22;;;;;;;3.13;0.93;;;;;;;18.31;77.86;100973.38;5020700;28;20044;-75
2023/08/26 07:22:50;;;;;;;3.97;0.70;;;;;;;18.22;77.87;100948.22;4994809;28;20061;-75
2023/08/26 07:25:21;;;;;;;4.82;1.13;;;;;;;18.36;78.08;100966.09;5020283;28;20046;-75
2023/08/26 07:27:48;;;;;;;3.78;0.65;;;;;;;18.39;77.52;100961.50;5016934;28;20069;-76
2023/08/26 07:30:15;;;;;;;3.83;0.68;;;;;;;18.42;77.13;100968.44;5021505;28;20038;-75
2023/08/26 07:32:42;;;;;;;4.40;1.58;;;;;;;18.44;76.90;100961.25;5018154;28;20041;-75
2023/08/26 07:35:10;;;;;;;1.60;0.60;;;;;;;18.48;76.97;100969.91;5019654;28;20713;-75
2023/08/26 07:37:37;;;;;;;1.15;0.70;;;;;;;18.51;77.03;100970.63;5022413;28;20052;-75
2023/08/26 07:40:13;;;;;;;2.75;0.60;;;;;;;18.54;77.17;100975.75;5022258;28;20420;-76
2023/08/26 07:42:40;;;;;;;2.75;0.80;;;;;;;18.57;76.46;100972.97;5021198;28;20045;-76
2023/08/26 07:45:08;;;;;;;5.13;0.75;;;;;;;18.59;76.28;100970.25;5021706;28;20061;-75
2023/08/26 07:47:35;;;;;;;2.25;0.63;;;;;;;18.61;76.30;100966.59;5017968;28;20416;-74
2023/08/26 07:50:02;;;;;;;2.58;0.60;;;;;;;18.62;76.20;100963.03;5023003;28;20123;-75
2023/08/26 07:52:29;;;;;;;2.95;1.10;;;;;;;18.67;75.84;100970.75;5017063;28;20734;-75
2023/08/26 07:54:56;;;;;;;0.80;0.50;;;;;;;18.69;75.77;100974.16;5021123;28;20404;-75
2023/08/26 07:57:24;;;;;;;1.88;0.50;;;;;;;18.72;75.63;100973.16;5024429;28;20515;-77
2023/08/26 07:59:53;;;;;;;1.35;0.70;;;;;;;18.74;75.60;100977.47;5019676;28;20045;-77
2023/08/26 08:02:20;;;;;;;2.05;0.80;;;;;;;18.78;75.93;100972.88;5022985;28;20049;-87
2023/08/26 08:04:48;;;;;;;4.60;0.70;;;;;;;18.71;75.69;100960.84;5029155;28;21190;-86
2023/08/26 08:07:15;;;;;;;5.88;0.60;;;;;;;18.83;75.26;100965.56;5032020;28;20049;-86
2023/08/26 08:09:42;;;;;;;2.35;0.50;;;;;;;18.81;74.86;100967.41;5029054;28;20045;-87
2023/08/26 08:12:09;;;;;;;2.90;0.60;;;;;;;18.88;74.74;100969.69;5019232;28;20052;-74
2023/08/26 08:14:41;;;;;;;1.52;0.70;;;;;;;18.76;74.90;100943.00;5012455;28;20072;-74
2023/08/26 08:17:08;;;;;;;1.10;0.70;;;;;;;18.92;75.21;100965.09;5016997;28;20050;-74
2023/08/26 08:19:38;;;;;;;3.10;0.82;;;;;;;18.96;75.04;100971.97;5019519;28;20410;-73
2023/08/26 08:22:05;;;;;;;2.05;0.60;;;;;;;19.00;74.86;100972.66;5016275;28;20060;-74
2023/08/26 08:24:32;;;;;;;4.97;0.50;;;;;;;19.00;74.13;100973.50;5020483;28;20046;-73
2023/08/26 08:26:59;;;;;;;2.63;0.40;;;;;;;19.03;73.99;100973.34;5017251;28;20061;-73
2023/08/26 08:29:26;;;;;;;1.50;0.55;;;;;;;19.06;74.24;100973.19;5019674;28;20052;-74
2023/08/26 08:31:54;;;;;;;3.70;0.50;;;;;;;19.08;73.83;100976.63;5021544;28;20127;-73
2023/08/26 08:34:21;;;;;;;0.95;0.50;;;;;;;19.09;73.16;100983.63;5016929;28;20037;-75
2023/08/26 08:36:48;;;;;;;1.15;0.50;;;;;;;19.13;72.53;100986.16;5015721;28;20046;-73
2023/08/26 08:39:15;;;;;;;2.35;0.40;;;;;;;19.12;72.20;100977.31;4992813;28;20149;-74
2023/08/26 08:41:42;;;;;;;3.35;0.40;;;;;;;19.13;72.52;100978.22;5011752;28;20041;-73
2023/08/26 08:44:11;;;;;;;0.60;0.47;;;;;;;19.16;72.80;100983.34;5020141;28;20046;-73
2023/08/26 08:46:39;;;;;;;2.45;0.50;;;;;;;19.18;72.39;100981.47;5017077;28;20501;-73
2023/08/26 08:49:07;;;;;;;0.98;0.50;;;;;;;19.19;72.43;100978.75;5019439;28;20052;-73
2023/08/26 08:51:35;;;;;;;2.30;0.50;;;;;;;19.02;71.83;100947.84;5016757;28;20714;-74
2023/08/26 08:54:04;;;;;;;2.35;0.55;;;;;;;19.20;71.20;100975.16;5019065;28;20046;-73
2023/08/26 08:56:33;;;;;;;0.70;0.45;;;;;;;19.24;71.10;100970.53;5014196;28;20111;-74
2023/08/26 08:59:02;;;;;;;2.65;0.40;;;;;;;19.23;70.94;100968.84;5019241;28;20057;-73
2023/08/26 09:01:30;;;;;;;1.92;0.40;;;;;;;19.23;70.92;100958.25;5010549;28;20109;-73
2023/08/26 09:03:57;;;;;;;5.28;0.50;;;;;;;19.25;70.98;100962.53;5018623;28;20468;-73
2023/08/26 09:06:38;;;;;;;4.30;0.77;;;;;;;18.96;70.31;100908.44;5017490;28;20052;-73
2023/08/26 09:09:10;;;;;;;0.88;0.30;;;;;;;19.19;69.50;100943.47;5018213;28;20542;-73
2023/08/26 09:11:37;;;;;;;3.22;1.20;;;;;;;19.25;69.56;100953.75;5022234;28;20779;-77
2023/08/26 09:14:04;;;;;;;3.00;0.40;;;;;;;19.26;69.34;100948.34;5022715;28;20052;-78
2023/08/26 09:16:35;;;;;;;1.83;0.30;;;;;;;19.25;69.37;100945.78;5016936;28;20057;-78
2023/08/26 09:19:02;;;;;;;1.27;0.40;;;;;;;19.27;69.53;100951.88;5020921;28;20041;-79
2023/08/26 09:21:31;;;;;;;1.90;0.38;;;;;;;19.28;69.44;100941.19;5023312;28;20041;-80
2023/08/26 09:23:58;;;;;;;1.58;0.50;;;;;;;19.30;69.42;100955.22;5023667;28;20042;-79
2023/08/26 09:26:25;;;;;;;1.80;0.63;;;;;;;19.32;69.64;100948.06;5019165;28;20046;-79
2023/08/26 09:28:52;;;;;;;1.08;0.40;;;;;;;19.35;69.77;100949.66;5024413;28;20042;-79
2023/08/26 09:31:20;;;;;;;2.92;0.43;;;;;;;19.36;69.64;100938.16;5026211;28;20085;-79
2023/08/26 09:33:51;;;;;;;0.80;0.30;;;;;;;19.39;69.68;100932.69;5016838;28;20042;-78
2023/08/26 09:36:18;;;;;;;3.15;0.40;;;;;;;19.41;69.93;100940.53;5025217;28;20104;-78
2023/08/26 09:38:49;;;;;;;0.98;0.30;;;;;;;19.44;69.56;100940.38;5022504;28;20045;-79
2023/08/26 09:41:19;;;;;;;1.08;0.40;;;;;;;19.44;69.10;100940.38;5021153;28;20056;-79
2023/08/26 09:43:47;;;;;;;1.83;0.45;;;;;;;19.47;69.12;100946.38;5022641;28;20045;-78
2023/08/26 09:46:24;;;;;;;1.30;0.35;;;;;;;19.42;68.62;100932.53;5016893;28;20507;-79
2023/08/26 09:48:51;;;;;;;2.78;0.30;;;;;;;19.50;68.56;100945.38;5022748;28;20045;-79
2023/08/26 09:51:29;;;;;;;1.55;0.50;;;;;;;19.31;68.49;100908.38;5020563;28;20049;-79
2023/08/26 09:53:58;;;;;;;3.10;0.50;;;;;;;19.51;68.69;100937.31;5020214;28;20045;-79
2023/08/26 09:59:10;;;;;;;3.97;1.05;;;;;;;19.54;69.05;100950.41;5015951;28;20058;-79
2023/08/26 10:01:39;;;;;;;1.92;0.50;;;;;;;19.58;69.04;100947.59;5017564;28;20064;-78
2023/08/26 10:04:08;;;;;;;1.23;0.47;;;;;;;19.61;68.82;100950.06;5022419;28;20073;-77
2023/08/26 10:06:39;;;;;;;2.08;0.50;;;;;;;19.62;69.03;100949.16;5019210;28;20134;-76
2023/08/26 10:09:12;;;;;;;1.88;0.40;;;;;;;19.64;69.10;100952.59;5022316;28;20111;-76
2023/08/26 10:11:51;;;;;;;1.83;0.50;;;;;;;19.66;69.33;100945.41;5021649;28;20045;-76
2023/08/26 10:14:21;;;;;;;1.63;0.40;;;;;;;19.69;69.07;100950.56;5012992;28;20046;-77
2023/08/26 10:16:50;;;;;;;1.13;0.50;;;;;;;19.71;69.25;100948.69;5017547;28;20060;-77
2023/08/26 10:19:17;;;;;;;2.63;0.60;;;;;;;19.72;69.10;100950.38;5020880;28;20053;-76
2023/08/26 10:21:45;;;;;;;2.17;0.77;;;;;;;19.74;68.85;100948.53;5021200;28;20622;-76
2023/08/26 10:24:14;;;;;;;2.50;0.55;;;;;;;19.72;68.76;100943.31;5015019;28;20049;-76
2023/08/26 10:26:41;;;;;;;1.25;0.50;;;;;;;19.76;68.36;100951.94;5019335;28;20041;-78
2023/08/26 10:29:09;;;;;;;1.80;0.40;;;;;;;19.75;68.05;100944.91;4974461;28;20041;-76
2023/08/26 10:31:38;;;;;;;3.40;0.63;;;;;;;19.77;67.95;100945.69;5020070;28;20038;-73
2023/08/26 10:34:14;;;;;;;1.23;0.50;;;;;;;19.75;68.09;100947.56;5012876;28;20046;-73
2023/08/26 10:36:46;;;;;;;1.67;0.40;;;;;;;19.77;68.14;100943.03;5015502;28;20256;-73
2023/08/26 10:39:16;;;;;;;3.15;1.58;;;;;;;19.77;68.02;100946.56;5015606;28;20045;-73
2023/08/26 10:42:14;;;;;;;3.20;0.47;;;;;;;19.80;68.23;100937.56;5015892;28;20435;-73
2023/08/26 10:44:42;;;;;;;2.97;0.43;;;;;;;19.79;68.19;100938.53;5016158;28;20156;-75
2023/08/26 10:47:09;;;;;;;1.60;0.60;;;;;;;19.80;68.22;100926.97;5019318;28;20400;-74
2023/08/26 10:49:37;;;;;;;3.60;0.45;;;;;;;19.73;67.96;100922.97;5014377;28;20046;-74
2023/08/26 10:52:17;;;;;;;0.75;0.38;;;;;;;19.71;67.97;100930.13;5014325;28;20566;-73
2023/08/26 10:54:46;;;;;;;1.05;0.45;;;;;;;19.79;68.04;100940.34;5017446;28;20061;-74
2023/08/26 10:57:21;;;;;;;4.15;0.90;;;;;;;19.78;67.93;100944.78;5014651;28;20073;-74
2023/08/26 10:59:48;;;;;;;0.55;0.47;;;;;;;19.73;67.83;100934.41;5016342;28;20049;-74
2023/08/26 11:02:17;;;;;;;1.90;0.50;;;;;;;19.79;67.96;100941.19;5014855;28;20060;-74
2023/08/26 11:04:46;;;;;;;4.93;1.77;;;;;;;19.79;67.79;100935.03;5018477;28;20069;-75
2023/08/26 11:07:16;;;;;;;1.35;0.50;;;;;;;19.76;67.94;100936.06;5016475;28;20053;-74
2023/08/26 11:09:45;;;;;;;0.60;0.57;;;;;;;19.78;67.82;100936.84;5011943;28;20112;-74
2023/08/26 11:12:28;;;;;;;2.95;0.45;;;;;;;19.80;68.20;100928.78;5015619;28;20053;-74
2023/08/26 11:14:55;;;;;;;2.83;0.82;;;;;;;19.77;68.10;100935.09;5012316;28;20503;-75
2023/08/26 11:17:22;;;;;;;2.20;0.55;;;;;;;19.78;67.92;100939.47;5018634;28;20807;-74
2023/08/26 11:19:50;;;;;;;1.80;0.60;;;;;;;19.78;68.01;100926.22;5020312;28;20045;-74
2023/08/26 11:22:17;;;;;;;2.40;0.50;;;;;;;19.77;67.73;100937.75;5012752;28;20652;-74
2023/08/26 11:24:50;;;;;;;1.65;0.57;;;;;;;19.77;67.86;100940.41;5013453;28;20685;-74
2023/08/26 11:27:17;;;;;;;2.13;0.60;;;;;;;19.79;68.38;100941.19;5015175;28;20045;-74
2023/08/26 11:29:44;;;;;;;2.03;0.80;;;;;;;19.80;68.35;100953.47;5018797;28;20053;-75
2023/08/26 11:32:12;;;;;;;2.38;0.47;;;;;;;19.82;68.42;100946.31;5020106;28;20038;-78